sensor_id;sensor_type;location;lat;lon;timestamp;pressure;altitude;pressure_sealevel;temperature;humidity
37298;BME280;30517;51.932;4.278;2024-03-22T00:02:21;102162.34;;;12.25;70.60
37298;BME280;30517;51.932;4.278;2024-03-22T00:05:02;102145.56;;;12.23;70.90
37298;BME280;30517;51.932;4.278;2024-03-22T00:07:43;102137.63;;;12.21;70.70
37298;BME280;30517;51.932;4.278;2024-03-22T00:10:24;102150.13;;;12.34;70.64
37298;BME280;30517;51.932;4.278;2024-03-22T00:13:05;102120.00;;;12.25;70.67
37298;BME280;30517;51.932;4.278;2024-03-22T00:15:46;102132.41;;;12.30;71.17
37298;BME280;30517;51.932;4.278;2024-03-22T00:18:26;102141.25;;;12.34;70.92
37298;BME280;30517;51.932;4.278;2024-03-22T00:21:07;102130.72;;;12.35;70.80
37298;BME280;30517;51.932;4.278;2024-03-22T00:23:48;102143.03;;;12.33;70.81
37298;BME280;30517;51.932;4.278;2024-03-22T00:26:29;102116.41;;;12.20;70.76
37298;BME280;30517;51.932;4.278;2024-03-22T00:29:10;102104.06;;;12.15;70.48
37298;BME280;30517;51.932;4.278;2024-03-22T00:31:51;102119.19;;;12.30;70.69
37298;BME280;30517;51.932;4.278;2024-03-22T00:34:31;102127.16;;;12.33;70.71
37298;BME280;30517;51.932;4.278;2024-03-22T00:37:12;102120.16;;;12.37;70.99
37298;BME280;30517;51.932;4.278;2024-03-22T00:39:53;102086.41;;;12.16;70.93
37298;BME280;30517;51.932;4.278;2024-03-22T00:42:34;102107.69;;;12.28;70.87
37298;BME280;30517;51.932;4.278;2024-03-22T00:45:15;102100.69;;;12.32;70.95
37298;BME280;30517;51.932;4.278;2024-03-22T00:47:56;102066.16;;;12.18;71.15
37298;BME280;30517;51.932;4.278;2024-03-22T00:50:36;102048.34;;;12.03;71.16
37298;BME280;30517;51.932;4.278;2024-03-22T00:53:17;102083.88;;;12.28;70.64
37298;BME280;30517;51.932;4.278;2024-03-22T00:55:58;102080.34;;;12.28;70.88
37298;BME280;30517;51.932;4.278;2024-03-22T00:58:39;102066.25;;;12.27;70.62
37298;BME280;30517;51.932;4.278;2024-03-22T01:01:20;102062.69;;;12.25;70.74
37298;BME280;30517;51.932;4.278;2024-03-22T01:04:01;102061.81;;;12.25;70.84
37298;BME280;30517;51.932;4.278;2024-03-22T01:06:41;102079.56;;;12.36;70.62
37298;BME280;30517;51.932;4.278;2024-03-22T01:09:22;102072.47;;;12.34;70.37
37298;BME280;30517;51.932;4.278;2024-03-22T01:12:03;102069.81;;;12.29;70.60
37298;BME280;30517;51.932;4.278;2024-03-22T01:14:45;102069.72;;;12.23;70.49
37298;BME280;30517;51.932;4.278;2024-03-22T01:17:26;102064.34;;;12.14;70.56
37298;BME280;30517;51.932;4.278;2024-03-22T01:20:07;102076.75;;;12.20;70.73
37298;BME280;30517;51.932;4.278;2024-03-22T01:22:48;102078.50;;;12.19;70.71
37298;BME280;30517;51.932;4.278;2024-03-22T01:25:29;102072.28;;;12.12;70.92
37298;BME280;30517;51.932;4.278;2024-03-22T01:28:10;102071.50;;;12.21;70.52
37298;BME280;30517;51.932;4.278;2024-03-22T01:30:51;102058.16;;;12.12;70.91
37298;BME280;30517;51.932;4.278;2024-03-22T01:33:31;102075.88;;;12.19;70.70
37298;BME280;30517;51.932;4.278;2024-03-22T01:36:12;102070.63;;;12.25;70.61
37298;BME280;30517;51.932;4.278;2024-03-22T01:38:53;102035.28;;;12.17;70.81
37298;BME280;30517;51.932;4.278;2024-03-22T01:41:34;102039.75;;;12.21;70.60
37298;BME280;30517;51.932;4.278;2024-03-22T01:44:15;102034.44;;;12.21;70.72
37298;BME280;30517;51.932;4.278;2024-03-22T01:46:56;102044.19;;;12.24;70.75
37298;BME280;30517;51.932;4.278;2024-03-22T01:49:37;102043.25;;;12.23;70.61
37298;BME280;30517;51.932;4.278;2024-03-22T01:52:18;102043.25;;;12.23;70.99
37298;BME280;30517;51.932;4.278;2024-03-22T01:54:59;102029.97;;;12.14;70.72
37298;BME280;30517;51.932;4.278;2024-03-22T01:57:40;102038.84;;;12.19;70.80
37298;BME280;30517;51.932;4.278;2024-03-22T02:00:21;102048.56;;;12.22;71.03
37298;BME280;30517;51.932;4.278;2024-03-22T02:03:02;102022.91;;;12.13;70.76
37298;BME280;30517;51.932;4.278;2024-03-22T02:05:42;102030.00;;;12.15;70.47
37298;BME280;30517;51.932;4.278;2024-03-22T02:08:23;102045.94;;;12.25;70.49
37298;BME280;30517;51.932;4.278;2024-03-22T02:11:04;102028.13;;;12.08;70.94
37298;BME280;30517;51.932;4.278;2024-03-22T02:13:45;102036.19;;;12.19;71.01
37298;BME280;30517;51.932;4.278;2024-03-22T02:16:26;102039.66;;;12.15;70.98
37298;BME280;30517;51.932;4.278;2024-03-22T02:19:07;102023.72;;;12.06;71.57
37298;BME280;30517;51.932;4.278;2024-03-22T02:21:48;102026.41;;;12.12;70.62
37298;BME280;30517;51.932;4.278;2024-03-22T02:24:29;102015.00;;;12.16;70.74
37298;BME280;30517;51.932;4.278;2024-03-22T02:27:10;101985.78;;;12.02;71.01
37298;BME280;30517;51.932;4.278;2024-03-22T02:29:51;101972.53;;;11.99;70.58
37298;BME280;30517;51.932;4.278;2024-03-22T02:32:32;102007.03;;;12.13;70.79
37298;BME280;30517;51.932;4.278;2024-03-22T02:35:13;101975.22;;;12.05;70.68
37298;BME280;30517;51.932;4.278;2024-03-22T02:37:53;101992.88;;;12.09;70.64
37298;BME280;30517;51.932;4.278;2024-03-22T02:40:34;102011.47;;;12.17;70.51
37298;BME280;30517;51.932;4.278;2024-03-22T02:43:15;101999.97;;;12.13;70.91
37298;BME280;30517;51.932;4.278;2024-03-22T02:45:59;101992.00;;;12.07;71.02
37298;BME280;30517;51.932;4.278;2024-03-22T02:48:39;101990.25;;;12.11;70.60
37298;BME280;30517;51.932;4.278;2024-03-22T02:51:20;101956.66;;;12.01;70.80
37298;BME280;30517;51.932;4.278;2024-03-22T02:54:01;101972.66;;;12.13;70.99
37298;BME280;30517;51.932;4.278;2024-03-22T02:56:42;101949.56;;;11.95;70.85
37298;BME280;30517;51.932;4.278;2024-03-22T02:59:26;101946.97;;;12.00;70.64
37298;BME280;30517;51.932;4.278;2024-03-22T03:02:07;101957.50;;;11.98;70.48
37298;BME280;30517;51.932;4.278;2024-03-22T03:04:48;101950.56;;;12.09;70.64
37298;BME280;30517;51.932;4.278;2024-03-22T03:07:29;101941.72;;;12.06;71.11
37298;BME280;30517;51.932;4.278;2024-03-22T03:10:09;101954.09;;;12.08;70.95
37298;BME280;30517;51.932;4.278;2024-03-22T03:12:50;101938.19;;;12.05;70.49
37298;BME280;30517;51.932;4.278;2024-03-22T03:15:31;101927.53;;;11.98;70.80
37298;BME280;30517;51.932;4.278;2024-03-22T03:18:12;101915.13;;;11.89;71.32
37298;BME280;30517;51.932;4.278;2024-03-22T03:20:53;101920.53;;;12.03;71.02
37298;BME280;30517;51.932;4.278;2024-03-22T03:23:33;101898.44;;;11.94;71.08
37298;BME280;30517;51.932;4.278;2024-03-22T03:26:14;101914.38;;;12.04;71.31
37298;BME280;30517;51.932;4.278;2024-03-22T03:28:55;101899.28;;;11.93;70.97
37298;BME280;30517;51.932;4.278;2024-03-22T03:31:36;101907.22;;;11.93;70.84
37298;BME280;30517;51.932;4.278;2024-03-22T03:34:17;101906.41;;;12.01;71.08
37298;BME280;30517;51.932;4.278;2024-03-22T03:37:00;101883.41;;;11.90;71.04
37298;BME280;30517;51.932;4.278;2024-03-22T03:39:41;101895.84;;;12.04;70.76
37298;BME280;30517;51.932;4.278;2024-03-22T03:42:22;101885.22;;;11.96;70.84
37298;BME280;30517;51.932;4.278;2024-03-22T03:45:03;101878.09;;;11.87;70.80
37298;BME280;30517;51.932;4.278;2024-03-22T03:47:44;101871.06;;;11.89;70.79
37298;BME280;30517;51.932;4.278;2024-03-22T03:50:24;101886.09;;;11.95;70.85
37298;BME280;30517;51.932;4.278;2024-03-22T03:53:05;101890.50;;;11.94;71.38
37298;BME280;30517;51.932;4.278;2024-03-22T03:55:46;101888.78;;;11.97;70.76
37298;BME280;30517;51.932;4.278;2024-03-22T03:58:27;101885.16;;;11.87;71.10
37298;BME280;30517;51.932;4.278;2024-03-22T04:01:08;101893.97;;;11.89;71.05
37298;BME280;30517;51.932;4.278;2024-03-22T04:03:49;101878.09;;;11.87;70.86
37298;BME280;30517;51.932;4.278;2024-03-22T04:06:30;101872.72;;;11.81;70.56
37298;BME280;30517;51.932;4.278;2024-03-22T04:09:11;101889.66;;;11.97;71.20
37298;BME280;30517;51.932;4.278;2024-03-22T04:11:52;101884.28;;;11.89;71.57
37298;BME280;30517;51.932;4.278;2024-03-22T04:14:33;101879.88;;;11.90;71.17
37298;BME280;30517;51.932;4.278;2024-03-22T04:17:13;101889.53;;;11.88;71.02
37298;BME280;30517;51.932;4.278;2024-03-22T04:19:54;101898.38;;;11.90;71.39
37298;BME280;30517;51.932;4.278;2024-03-22T04:22:35;101890.31;;;11.79;70.89
37298;BME280;30517;51.932;4.278;2024-03-22T04:25:16;101904.53;;;11.87;70.75
37298;BME280;30517;51.932;4.278;2024-03-22T04:27:57;101884.97;;;11.74;70.99
37298;BME280;30517;51.932;4.278;2024-03-22T04:30:38;101908.88;;;11.85;70.93
37298;BME280;30517;51.932;4.278;2024-03-22T04:33:18;101889.41;;;11.76;71.05
37298;BME280;30517;51.932;4.278;2024-03-22T04:36:00;101882.31;;;11.70;71.01
37298;BME280;30517;51.932;4.278;2024-03-22T04:38:41;101894.69;;;11.74;71.21
37298;BME280;30517;51.932;4.278;2024-03-22T04:41:22;101885.88;;;11.77;71.28
37298;BME280;30517;51.932;4.278;2024-03-22T04:44:02;101907.19;;;11.90;71.25
37298;BME280;30517;51.932;4.278;2024-03-22T04:46:43;101898.25;;;11.79;70.92
37298;BME280;30517;51.932;4.278;2024-03-22T04:49:24;101907.13;;;11.83;70.79
37298;BME280;30517;51.932;4.278;2024-03-22T04:52:05;101890.25;;;11.71;71.40
37298;BME280;30517;51.932;4.278;2024-03-22T04:54:46;101886.75;;;11.72;71.26
37298;BME280;30517;51.932;4.278;2024-03-22T04:57:27;101910.63;;;11.85;71.16
37298;BME280;30517;51.932;4.278;2024-03-22T05:00:08;101874.38;;;11.70;70.46
37298;BME280;30517;51.932;4.278;2024-03-22T05:02:49;101884.97;;;11.74;70.55
37298;BME280;30517;51.932;4.278;2024-03-22T05:05:30;101897.41;;;11.82;71.00
37298;BME280;30517;51.932;4.278;2024-03-22T05:08:11;101892.13;;;11.83;71.05
37298;BME280;30517;51.932;4.278;2024-03-22T05:10:52;101826.59;;;11.47;70.85
37298;BME280;30517;51.932;4.278;2024-03-22T05:13:33;101887.81;;;11.90;70.36
37298;BME280;30517;51.932;4.278;2024-03-22T05:16:14;101871.81;;;11.78;70.98
37298;BME280;30517;51.932;4.278;2024-03-22T05:18:55;101876.19;;;11.76;70.91
37298;BME280;30517;51.932;4.278;2024-03-22T05:21:36;101862.91;;;11.68;71.23
37298;BME280;30517;51.932;4.278;2024-03-22T05:24:17;101859.38;;;11.67;71.06
37298;BME280;30517;51.932;4.278;2024-03-22T05:26:58;101866.53;;;11.79;70.93
37298;BME280;30517;51.932;4.278;2024-03-22T05:29:39;101862.06;;;11.70;71.05
37298;BME280;30517;51.932;4.278;2024-03-22T05:32:20;101864.56;;;11.57;72.49
37298;BME280;30517;51.932;4.278;2024-03-22T05:35:01;101862.84;;;11.59;72.51
37298;BME280;30517;51.932;4.278;2024-03-22T05:37:42;101839.16;;;11.69;71.07
37298;BME280;30517;51.932;4.278;2024-03-22T05:40:23;101836.47;;;11.68;71.25
37298;BME280;30517;51.932;4.278;2024-03-22T05:43:04;101836.53;;;11.77;71.50
37298;BME280;30517;51.932;4.278;2024-03-22T05:45:45;101828.59;;;11.72;70.92
37298;BME280;30517;51.932;4.278;2024-03-22T05:48:26;101846.25;;;11.75;71.51
37298;BME280;30517;51.932;4.278;2024-03-22T05:51:06;101860.34;;;11.76;71.42
37298;BME280;30517;51.932;4.278;2024-03-22T05:53:47;101844.44;;;11.69;70.89
37298;BME280;30517;51.932;4.278;2024-03-22T05:56:28;101847.13;;;11.77;71.26
37298;BME280;30517;51.932;4.278;2024-03-22T05:59:09;101831.25;;;11.74;70.94
37298;BME280;30517;51.932;4.278;2024-03-22T06:01:50;101839.16;;;11.74;70.88
37298;BME280;30517;51.932;4.278;2024-03-22T06:04:31;101828.56;;;11.71;71.13
37298;BME280;30517;51.932;4.278;2024-03-22T06:07:12;101812.66;;;11.65;71.27
37298;BME280;30517;51.932;4.278;2024-03-22T06:09:54;101823.28;;;11.69;71.18
37298;BME280;30517;51.932;4.278;2024-03-22T06:12:35;101808.22;;;11.61;71.04
37298;BME280;30517;51.932;4.278;2024-03-22T06:15:16;101818.94;;;11.76;70.75
37298;BME280;30517;51.932;4.278;2024-03-22T06:17:57;101825.09;;;11.77;70.52
37298;BME280;30517;51.932;4.278;2024-03-22T06:20:38;101805.56;;;11.59;70.73
37298;BME280;30517;51.932;4.278;2024-03-22T06:23:18;101824.22;;;11.76;70.93
37298;BME280;30517;51.932;4.278;2024-03-22T06:26:01;101803.75;;;11.55;70.92
37298;BME280;30517;51.932;4.278;2024-03-22T06:28:42;101826.81;;;11.70;71.23
37298;BME280;30517;51.932;4.278;2024-03-22T06:31:22;101836.56;;;11.76;71.31
37298;BME280;30517;51.932;4.278;2024-03-22T06:34:04;101818.03;;;11.77;71.18
37298;BME280;30517;51.932;4.278;2024-03-22T06:36:45;101788.69;;;11.45;70.81
37298;BME280;30517;51.932;4.278;2024-03-22T06:39:27;101835.69;;;11.75;70.85
37298;BME280;30517;51.932;4.278;2024-03-22T06:42:08;101829.53;;;11.82;70.65
37298;BME280;30517;51.932;4.278;2024-03-22T06:44:48;101820.63;;;11.68;71.37
37298;BME280;30517;51.932;4.278;2024-03-22T06:47:29;101817.16;;;11.72;71.05
37298;BME280;30517;51.932;4.278;2024-03-22T06:50:10;101840.94;;;11.77;70.80
37298;BME280;30517;51.932;4.278;2024-03-22T06:52:51;101813.56;;;11.64;71.22
37298;BME280;30517;51.932;4.278;2024-03-22T06:55:33;101802.97;;;11.64;70.89
37298;BME280;30517;51.932;4.278;2024-03-22T06:58:14;101828.56;;;11.71;71.43
37298;BME280;30517;51.932;4.278;2024-03-22T07:00:55;101802.88;;;11.55;71.36
37298;BME280;30517;51.932;4.278;2024-03-22T07:03:35;101818.75;;;11.55;71.20
37298;BME280;30517;51.932;4.278;2024-03-22T07:06:16;101836.53;;;11.72;71.17
37298;BME280;30517;51.932;4.278;2024-03-22T07:08:57;101832.13;;;11.73;71.18
37298;BME280;30517;51.932;4.278;2024-03-22T07:11:38;101813.63;;;11.73;70.93
37298;BME280;30517;51.932;4.278;2024-03-22T07:14:19;101809.94;;;11.56;71.15
37298;BME280;30517;51.932;4.278;2024-03-22T07:16:59;101828.59;;;11.69;71.35
37298;BME280;30517;51.932;4.278;2024-03-22T07:19:40;101827.66;;;11.69;71.57
37298;BME280;30517;51.932;4.278;2024-03-22T07:22:21;101781.66;;;11.42;71.45
37298;BME280;30517;51.932;4.278;2024-03-22T07:25:02;101806.44;;;11.57;71.16
37298;BME280;30517;51.932;4.278;2024-03-22T07:27:44;101828.63;;;11.76;70.65
37298;BME280;30517;51.932;4.278;2024-03-22T07:30:26;101809.84;;;11.43;71.59
37298;BME280;30517;51.932;4.278;2024-03-22T07:33:07;101825.91;;;11.68;71.31
37298;BME280;30517;51.932;4.278;2024-03-22T07:35:48;101826.84;;;11.73;70.99
37298;BME280;30517;51.932;4.278;2024-03-22T07:38:29;101825.91;;;11.68;71.01
37298;BME280;30517;51.932;4.278;2024-03-22T07:41:09;101825.03;;;11.67;71.28
37298;BME280;30517;51.932;4.278;2024-03-22T07:43:50;101826.81;;;11.70;71.33
37298;BME280;30517;51.932;4.278;2024-03-22T07:46:31;101822.44;;;11.72;71.36
37298;BME280;30517;51.932;4.278;2024-03-22T07:49:12;101827.66;;;11.69;71.26
37298;BME280;30517;51.932;4.278;2024-03-22T07:51:53;101809.13;;;11.63;71.05
37298;BME280;30517;51.932;4.278;2024-03-22T07:54:34;101815.34;;;11.68;71.43
37298;BME280;30517;51.932;4.278;2024-03-22T07:57:15;101824.16;;;11.68;71.25
37298;BME280;30517;51.932;4.278;2024-03-22T07:59:57;101827.66;;;11.66;71.52
37298;BME280;30517;51.932;4.278;2024-03-22T08:02:38;101825.00;;;11.64;71.77
37298;BME280;30517;51.932;4.278;2024-03-22T08:05:18;101815.28;;;11.63;71.31
37298;BME280;30517;51.932;4.278;2024-03-22T08:07:59;101807.38;;;11.62;71.44
37298;BME280;30517;51.932;4.278;2024-03-22T08:10:40;101819.72;;;11.66;71.25
37298;BME280;30517;51.932;4.278;2024-03-22T08:13:21;101833.88;;;11.71;71.25
37298;BME280;30517;51.932;4.278;2024-03-22T08:16:02;101830.31;;;11.67;71.51
37298;BME280;30517;51.932;4.278;2024-03-22T08:18:42;101818.03;;;11.72;70.72
37298;BME280;30517;51.932;4.278;2024-03-22T08:21:24;101833.94;;;11.79;71.46
37298;BME280;30517;51.932;4.278;2024-03-22T08:24:04;101832.94;;;11.69;71.15
37298;BME280;30517;51.932;4.278;2024-03-22T08:26:45;101809.19;;;11.67;71.07
37298;BME280;30517;51.932;4.278;2024-03-22T08:29:27;101831.25;;;11.72;71.69
37298;BME280;30517;51.932;4.278;2024-03-22T08:32:08;101819.75;;;11.67;71.44
37298;BME280;30517;51.932;4.278;2024-03-22T08:34:48;101818.91;;;11.73;71.20
37298;BME280;30517;51.932;4.278;2024-03-22T08:37:30;101810.00;;;11.63;71.65
37298;BME280;30517;51.932;4.278;2024-03-22T08:40:11;101814.50;;;11.72;71.18
37298;BME280;30517;51.932;4.278;2024-03-22T08:42:54;101817.06;;;11.66;71.63
37298;BME280;30517;51.932;4.278;2024-03-22T08:45:35;101811.78;;;11.64;71.44
37298;BME280;30517;51.932;4.278;2024-03-22T08:48:16;101807.44;;;11.71;71.33
37298;BME280;30517;51.932;4.278;2024-03-22T08:50:57;101815.38;;;11.74;71.73
37298;BME280;30517;51.932;4.278;2024-03-22T08:53:38;101797.72;;;11.67;71.69
37298;BME280;30517;51.932;4.278;2024-03-22T08:56:19;101795.84;;;11.55;71.77
37298;BME280;30517;51.932;4.278;2024-03-22T08:59:00;101800.38;;;11.70;71.64
37298;BME280;30517;51.932;4.278;2024-03-22T09:01:41;101764.13;;;11.55;71.90
37298;BME280;30517;51.932;4.278;2024-03-22T09:04:21;101795.94;;;11.69;71.03
37298;BME280;30517;51.932;4.278;2024-03-22T09:07:02;101793.28;;;11.64;71.78
37298;BME280;30517;51.932;4.278;2024-03-22T09:09:43;101799.44;;;11.66;72.21
37298;BME280;30517;51.932;4.278;2024-03-22T09:12:24;101769.34;;;11.47;71.43
37298;BME280;30517;51.932;4.278;2024-03-22T09:15:05;101767.66;;;11.56;71.64
37298;BME280;30517;51.932;4.278;2024-03-22T09:17:47;101800.28;;;11.61;71.95
37298;BME280;30517;51.932;4.278;2024-03-22T09:20:28;101791.50;;;11.59;71.42
37298;BME280;30517;51.932;4.278;2024-03-22T09:23:09;101786.22;;;11.62;71.17
37298;BME280;30517;51.932;4.278;2024-03-22T09:25:49;101792.41;;;11.64;71.68
37298;BME280;30517;51.932;4.278;2024-03-22T09:28:30;101804.78;;;11.71;71.99
37298;BME280;30517;51.932;4.278;2024-03-22T09:31:11;101792.44;;;11.68;70.97
37298;BME280;30517;51.932;4.278;2024-03-22T09:33:52;101787.16;;;11.71;71.18
37298;BME280;30517;51.932;4.278;2024-03-22T09:36:33;101788.06;;;11.72;71.63
37298;BME280;30517;51.932;4.278;2024-03-22T09:39:15;101763.28;;;11.61;71.58
37298;BME280;30517;51.932;4.278;2024-03-22T09:41:57;101781.88;;;11.70;71.76
37298;BME280;30517;51.932;4.278;2024-03-22T09:44:39;101780.13;;;11.70;71.27
37298;BME280;30517;51.932;4.278;2024-03-22T09:47:22;101780.16;;;11.75;71.51
37298;BME280;30517;51.932;4.278;2024-03-22T09:50:07;101789.81;;;11.71;72.12
37298;BME280;30517;51.932;4.278;2024-03-22T09:52:52;101786.34;;;11.76;71.48
37298;BME280;30517;51.932;4.278;2024-03-22T09:55:33;101770.31;;;11.57;71.90
37298;BME280;30517;51.932;4.278;2024-03-22T09:58:16;101765.09;;;11.62;71.20
37298;BME280;30517;51.932;4.278;2024-03-22T10:00:57;101765.09;;;11.62;71.75
37298;BME280;30517;51.932;4.278;2024-03-22T10:03:41;101782.75;;;11.70;71.84
37298;BME280;30517;51.932;4.278;2024-03-22T10:06:23;101770.38;;;11.65;71.41
37298;BME280;30517;51.932;4.278;2024-03-22T10:09:04;101787.16;;;11.67;71.62
37298;BME280;30517;51.932;4.278;2024-03-22T10:11:45;101788.91;;;11.68;71.69
37298;BME280;30517;51.932;4.278;2024-03-22T10:14:27;101801.31;;;11.75;71.74
37298;BME280;30517;51.932;4.278;2024-03-22T10:17:08;101790.66;;;11.66;71.75
37298;BME280;30517;51.932;4.278;2024-03-22T10:19:49;101767.72;;;11.59;72.13
37298;BME280;30517;51.932;4.278;2024-03-22T10:22:31;101792.38;;;11.61;71.87
37298;BME280;30517;51.932;4.278;2024-03-22T10:25:12;101800.31;;;11.62;71.72
37298;BME280;30517;51.932;4.278;2024-03-22T10:27:56;101791.44;;;11.56;72.23
37298;BME280;30517;51.932;4.278;2024-03-22T10:30:40;101792.44;;;11.67;72.02
37298;BME280;30517;51.932;4.278;2024-03-22T10:33:22;101776.56;;;11.67;71.52
37298;BME280;30517;51.932;4.278;2024-03-22T10:36:04;101778.19;;;11.52;71.92
37298;BME280;30517;51.932;4.278;2024-03-22T10:38:45;101782.66;;;11.58;72.35
37298;BME280;30517;51.932;4.278;2024-03-22T10:41:30;101788.81;;;11.57;71.74
37298;BME280;30517;51.932;4.278;2024-03-22T10:44:12;101795.91;;;11.63;72.19
37298;BME280;30517;51.932;4.278;2024-03-22T10:46:55;101799.53;;;11.77;72.09
37298;BME280;30517;51.932;4.278;2024-03-22T10:49:39;101786.31;;;11.77;72.36
37298;BME280;30517;51.932;4.278;2024-03-22T10:52:20;101795.13;;;11.76;71.82
37298;BME280;30517;51.932;4.278;2024-03-22T10:55:04;101781.91;;;11.73;71.93
37298;BME280;30517;51.932;4.278;2024-03-22T10:57:47;101784.53;;;11.71;72.18
37298;BME280;30517;51.932;4.278;2024-03-22T11:00:29;101765.94;;;11.61;71.88
37298;BME280;30517;51.932;4.278;2024-03-22T11:07:06;101762.41;;;11.60;72.45
37298;BME280;30517;51.932;4.278;2024-03-22T11:09:52;101771.28;;;11.64;72.35
37298;BME280;30517;51.932;4.278;2024-03-22T11:12:32;101759.72;;;11.51;72.69
37298;BME280;30517;51.932;4.278;2024-03-22T11:15:13;101768.63;;;11.64;72.28
37298;BME280;30517;51.932;4.278;2024-03-22T11:17:54;101771.34;;;11.73;72.28
37298;BME280;30517;51.932;4.278;2024-03-22T11:20:38;101769.41;;;11.54;72.96
37298;BME280;30517;51.932;4.278;2024-03-22T11:23:19;101775.66;;;11.63;73.05
37298;BME280;30517;51.932;4.278;2024-03-22T11:25:59;101748.25;;;11.52;72.79
37298;BME280;30517;51.932;4.278;2024-03-22T11:28:42;101772.16;;;11.67;73.23
37298;BME280;30517;51.932;4.278;2024-03-22T11:31:23;101753.56;;;11.54;73.18
37298;BME280;30517;51.932;4.278;2024-03-22T11:34:07;101755.31;;;11.55;72.82
37298;BME280;30517;51.932;4.278;2024-03-22T11:36:48;101749.16;;;11.56;72.75
37298;BME280;30517;51.932;4.278;2024-03-22T11:39:30;101760.69;;;11.65;72.47
37298;BME280;30517;51.932;4.278;2024-03-22T11:42:12;101750.94;;;11.57;73.29
37298;BME280;30517;51.932;4.278;2024-03-22T11:44:53;101747.41;;;11.53;72.89
37298;BME280;30517;51.932;4.278;2024-03-22T11:47:34;101735.13;;;11.60;72.57
37298;BME280;30517;51.932;4.278;2024-03-22T11:50:15;101746.50;;;11.56;72.75
37298;BME280;30517;51.932;4.278;2024-03-22T11:52:56;101755.50;;;11.76;72.76
37298;BME280;30517;51.932;4.278;2024-03-22T11:55:37;101751.91;;;11.68;72.72
37298;BME280;30517;51.932;4.278;2024-03-22T11:58:18;101745.72;;;11.66;72.40
37298;BME280;30517;51.932;4.278;2024-03-22T12:00:59;101749.28;;;11.69;72.93
37298;BME280;30517;51.932;4.278;2024-03-22T12:03:40;101753.78;;;11.81;72.67
37298;BME280;30517;51.932;4.278;2024-03-22T12:06:22;101744.00;;;11.71;72.70
37298;BME280;30517;51.932;4.278;2024-03-22T12:09:03;101743.16;;;11.72;72.67
37298;BME280;30517;51.932;4.278;2024-03-22T12:11:44;101742.31;;;11.81;73.03
37298;BME280;30517;51.932;4.278;2024-03-22T12:14:24;101706.91;;;11.60;72.89
37298;BME280;30517;51.932;4.278;2024-03-22T12:17:06;101738.81;;;11.85;72.73
37298;BME280;30517;51.932;4.278;2024-03-22T12:19:47;101734.47;;;11.90;72.24
37298;BME280;30517;51.932;4.278;2024-03-22T12:22:28;101727.41;;;11.90;72.49
37298;BME280;30517;51.932;4.278;2024-03-22T12:25:09;101711.47;;;11.81;72.70
37298;BME280;30517;51.932;4.278;2024-03-22T12:27:51;101692.97;;;11.78;72.58
37298;BME280;30517;51.932;4.278;2024-03-22T12:30:31;101693.03;;;11.86;72.74
37298;BME280;30517;51.932;4.278;2024-03-22T12:33:13;101718.63;;;11.93;72.59
37298;BME280;30517;51.932;4.278;2024-03-22T12:35:54;101708.06;;;11.91;71.99
37298;BME280;30517;51.932;4.278;2024-03-22T12:38:35;101687.75;;;11.87;72.06
37298;BME280;30517;51.932;4.278;2024-03-22T12:41:16;101701.97;;;12.02;71.64
37298;BME280;30517;51.932;4.278;2024-03-22T12:43:57;101695.75;;;11.97;71.65
37298;BME280;30517;51.932;4.278;2024-03-22T12:46:38;101683.38;;;11.95;72.12
37298;BME280;30517;51.932;4.278;2024-03-22T12:49:19;101695.75;;;11.97;72.29
37298;BME280;30517;51.932;4.278;2024-03-22T12:51:59;101678.94;;;11.87;72.15
37298;BME280;30517;51.932;4.278;2024-03-22T12:54:40;101676.34;;;11.98;72.21
37298;BME280;30517;51.932;4.278;2024-03-22T12:57:21;101687.81;;;11.98;72.00
37298;BME280;30517;51.932;4.278;2024-03-22T13:00:02;101695.75;;;12.00;72.31
37298;BME280;30517;51.932;4.278;2024-03-22T13:02:52;101678.06;;;11.89;72.16
37298;BME280;30517;51.932;4.278;2024-03-22T13:05:33;101676.22;;;11.82;72.45
37298;BME280;30517;51.932;4.278;2024-03-22T13:08:14;101689.56;;;11.98;72.62
37298;BME280;30517;51.932;4.278;2024-03-22T13:10:55;101683.38;;;11.89;73.21
37298;BME280;30517;51.932;4.278;2024-03-22T13:13:36;101679.00;;;11.94;73.12
37298;BME280;30517;51.932;4.278;2024-03-22T13:16:17;101673.69;;;11.91;72.40
37298;BME280;30517;51.932;4.278;2024-03-22T13:18:57;101669.19;;;11.81;72.56
37298;BME280;30517;51.932;4.278;2024-03-22T13:21:38;101679.03;;;11.99;72.36
37298;BME280;30517;51.932;4.278;2024-03-22T13:24:19;101663.13;;;11.96;72.49
37298;BME280;30517;51.932;4.278;2024-03-22T13:27:01;101649.03;;;11.99;71.75
37298;BME280;30517;51.932;4.278;2024-03-22T13:29:42;101647.13;;;11.79;72.43
37298;BME280;30517;51.932;4.278;2024-03-22T13:32:23;101640.22;;;11.95;72.10
37298;BME280;30517;51.932;4.278;2024-03-22T13:35:05;101628.78;;;12.02;71.33
37298;BME280;30517;51.932;4.278;2024-03-22T13:37:46;101643.75;;;11.94;72.73
37298;BME280;30517;51.932;4.278;2024-03-22T13:40:27;101626.97;;;11.93;72.20
37298;BME280;30517;51.932;4.278;2024-03-22T13:43:07;101616.41;;;11.95;71.78
37298;BME280;30517;51.932;4.278;2024-03-22T13:45:52;101625.22;;;11.91;72.40
37298;BME280;30517;51.932;4.278;2024-03-22T13:48:36;101640.22;;;11.98;72.00
37298;BME280;30517;51.932;4.278;2024-03-22T13:51:17;101636.69;;;11.91;72.36
37298;BME280;30517;51.932;4.278;2024-03-22T13:53:58;101623.47;;;11.98;72.19
37298;BME280;30517;51.932;4.278;2024-03-22T13:56:39;101625.22;;;11.95;72.60
37298;BME280;30517;51.932;4.278;2024-03-22T13:59:20;101611.09;;;11.86;72.33
37298;BME280;30517;51.932;4.278;2024-03-22T14:02:01;101606.69;;;11.88;72.51
37298;BME280;30517;51.932;4.278;2024-03-22T14:04:42;101619.09;;;12.06;72.22
37298;BME280;30517;51.932;4.278;2024-03-22T14:07:22;101607.63;;;12.04;71.98